Pinehill, Texas
Current Conditions -  °F | °C
As of 8:35 PM on Saturday 25 Oct 2014 (Local Time) from KRFI Reporting Station
Clear Clear  
Wind Chill: 67°   Ceiling: Unl
Heat Index: 67°   Visibility: 10mi
Dew Point: 65°   Wind: 0mph
Humidity: 96%   Direction: NA
Pressure: 30.09"   Gusts: NA
Location:  32.1449°N, 94.7416°W
Report Text: KRFI 260135Z AUTO 00000KT 10SM CLR 19/19 A3009 RMK AO2 T01920186
Loading
Personal Weather Stations






























Interactive Weather Map
Tropical Storm Tracking
New forecast layout! Learn more

10-Day Weather Forecast

Advertisements
Track Severe Weather on mobile